• Join FlightAware (Why Join?)
  • Login
  • US Flag 
06:26AM EST


 

Airport Tracker/Info


-or-


 

Live Flight TrackerFlight Track Log ✈ N585KT ✈ 18-Sep-2013 ✈ MBPV / PLS - MKJP / KIN

Flight Track Log - Related Links

Times and Time Zones

All times are in EDT time to prevent confusion due to time zone crossing. See the N585KT flight status page for this flight to view local times or setup timezone preferences in your user account.

Time Position Orientation Groundspeed Altitude Reporting Facility
EDT Latitude Longitude Course Direction KTS MPH feet Rate Location/Type
09:53AM 21.7525 -72.1992 226° Southwest 350 403 2,800  Level Miami Center
09:54AM 21.7042 -72.1919 172° South 240 276 4,600 1,800 Climbing Miami Center
09:55AM 21.6500 -72.1981 186° South 200 230 6,400 1,680 Climbing Miami Center
09:56AM 21.4380 -72.6605 231° Southwest  Level FlightAware Approximate
09:56AM 21.5917 -72.2003 182° South 200 230 8,000  Level Miami Center
09:57AM 21.3864 -72.7292 231° Southwest  Level FlightAware Approximate
09:57AM 21.5356 -72.2022 182° South 200 230 9,800  Level Miami Center
09:58AM 21.3294 -72.7927 226° Southwest  Level FlightAware Approximate
09:58AM 21.4769 -72.2042 182° South 200 230 11,300  Level Miami Center
09:59AM 21.4183 -72.1972 174° South 205 236 12,800 1,500 Climbing Miami Center
10:00AM 21.3597 -72.1903 174° South 216 249 14,400 1,500 Climbing Miami Center
10:01AM 21.2972 -72.1881 178° South 221 254 15,800 1,380 Climbing Miami Center
10:02AM 21.2367 -72.1903 182° South 221 254 17,200 1,380 Climbing Miami Center
10:03AM 21.1722 -72.1947 184° South 221 254 18,600 1,200 Climbing Miami Center
10:04AM 21.1078 -72.2014 186° South 227 261 19,700 1,080 Climbing Miami Center
10:05AM 21.0389 -72.2036 182° South 240 276 20,800 1,080 Climbing Miami Center
10:06AM 20.9703 -72.2106 185° South 245 282 21,900 1,080 Climbing Miami Center
10:07AM 20.8994 -72.2128 182° South 250 288 23,000 960 Climbing Miami Center
10:08AM 20.8286 -72.2175 184° South 255 293 23,900 900 Climbing Miami Center
10:09AM 20.7581 -72.2244 185° South 255 293 24,900 900 Climbing Miami Center
10:10AM 20.6853 -72.2311 185° South 255 293 25,700 900 Climbing Miami Center
10:11AM 20.6103 -72.2383 185° South 261 300 26,700 900 Climbing Miami Center
10:12AM 20.5356 -72.2453 185° South 266 306 27,500 600 Climbing Miami Center
10:13AM 20.4583 -72.2478 182° South 272 313 28,000 240 Climbing Miami Center
10:14AM 20.3819 -72.2767 200° South 282 325 28,000  Level Miami Center
10:15AM 20.3192 -72.3408 224° Southwest 287 330 28,000  Level Miami Center
10:17AM 20.2103 -72.4713 228° Southwest  Level FlightAware Approximate
10:24AM 19.8189 -72.9380 228° Southwest  Level FlightAware Approximate
10:25AM 19.7627 -73.0044 226° Southwest  Level FlightAware Approximate
10:26AM 19.7041 -73.0683 226° Southwest  Level FlightAware Approximate
10:27AM 19.6455 -73.1321 226° Southwest  Level FlightAware Approximate
10:28AM 19.5868 -73.1960 226° Southwest  Level FlightAware Approximate
10:29AM 19.5282 -73.2597 226° Southwest  Level FlightAware Approximate
10:30AM 19.4695 -73.3234 226° Southwest  Level FlightAware Approximate
10:31AM 19.4108 -73.3871 226° Southwest  Level FlightAware Approximate
10:32AM 19.3520 -73.4508 226° Southwest  Level FlightAware Approximate
10:33AM 19.2933 -73.5144 226° Southwest  Level FlightAware Approximate
10:34AM 19.2345 -73.5779 226° Southwest  Level FlightAware Approximate
10:35AM 19.1757 -73.6414 226° Southwest  Level FlightAware Approximate
10:36AM 19.1169 -73.7048 226° Southwest  Level FlightAware Approximate
10:37AM 19.0581 -73.7682 226° Southwest  Level FlightAware Approximate
10:38AM 18.9992 -73.8316 226° Southwest  Level FlightAware Approximate
10:39AM 18.9403 -73.8949 225° Southwest  Level FlightAware Approximate
10:40AM 18.8814 -73.9582 225° Southwest  Level FlightAware Approximate
10:41AM 18.8225 -74.0214 225° Southwest  Level FlightAware Approximate
10:42AM 18.7636 -74.0846 225° Southwest  Level FlightAware Approximate
10:43AM 18.7046 -74.1478 225° Southwest  Level FlightAware Approximate
10:44AM 18.6456 -74.2108 225° Southwest  Level FlightAware Approximate
10:45AM 18.5866 -74.2739 225° Southwest  Level FlightAware Approximate
10:46AM 18.5276 -74.3369 225° Southwest  Level FlightAware Approximate
10:47AM 18.4685 -74.3999 225° Southwest  Level FlightAware Approximate
10:48AM 18.4095 -74.4628 225° Southwest  Level FlightAware Approximate
10:49AM 18.3504 -74.5257 225° Southwest  Level FlightAware Approximate
10:50AM 18.2913 -74.5885 225° Southwest  Level FlightAware Approximate
10:51AM 18.2331 -74.6518 262° West  Level FlightAware Approximate
10:52AM 18.2212 -74.7393 262° West  Level FlightAware Approximate
10:53AM 18.2093 -74.8268 262° West  Level FlightAware Approximate
10:54AM 18.1974 -74.9143 262° West  Level FlightAware Approximate
10:55AM 18.1854 -75.0018 262° West  Level FlightAware Approximate
10:56AM 18.1722 -75.0891 261° West  Level FlightAware Approximate
10:57AM 18.1588 -75.1764 261° West  Level FlightAware Approximate
10:58AM 18.1464 -75.2638 263° West  Level FlightAware Approximate
10:59AM 18.1362 -75.3515 263° West  Level FlightAware Approximate
11:00AM 18.1258 -75.4391 263° West  Level FlightAware Approximate
11:01AM 18.1151 -75.5268 261° West  Level FlightAware Approximate
11:02AM 18.1018 -75.6140 261° West  Level FlightAware Approximate
11:03AM 18.0884 -75.7012 261° West  Level FlightAware Approximate
11:04AM 18.0750 -75.7884 261° West  Level FlightAware Approximate
11:05AM 18.0615 -75.8756 261° West  Level FlightAware Approximate
11:06AM 18.0484 -75.9629 263° West  Level FlightAware Approximate
11:07AM 18.0375 -76.0504 263° West  Level FlightAware Approximate
11:08AM 18.0142 -76.1339 261° West  Level FlightAware Approximate
11:09AM 18.0018 -76.2213 261° West  Level FlightAware Approximate
11:10AM 17.9893 -76.3086 261° West  Level FlightAware Approximate
11:11AM 17.9787 -76.3962 264° West  Level FlightAware Approximate
11:12AM 17.9699 -76.4840 264° West  Level FlightAware Approximate
11:13AM 17.9573 -76.5708 255° West  Level FlightAware Approximate
11:14AM 17.9386 -76.6568 258° West  Level FlightAware Approximate
11:15AM 17.9214 -76.7432 258° West  Level FlightAware Approximate
11:16AM 17.9167 -76.7667 North  Level FlightAware Approximate
11:17AM 17.9357 -76.7875 North  Level Estimated
11:18AM 17.9357 -76.7875 North  Level Estimated
11:19AM 17.9357 -76.7875 North  Level Estimated
11:20AM 17.9357 -76.7875 North  Level Estimated
11:21AM 17.9357 -76.7875 North  Level Estimated
11:22AM 17.9357 -76.7875 North  Level Estimated
11:23AM 17.9357 -76.7875 North  Level Estimated
11:24AM 17.9357 -76.7875 North  Level Estimated